sensor_id;sensor_type;location;lat;lon;timestamp;P1;durP1;ratioP1;P2;durP2;ratioP2
53961;SDS011;39868;53.398;6.564;2023-04-25T00:02:25;5.25;;;1.85;;
53961;SDS011;39868;53.398;6.564;2023-04-25T00:04:52;7.50;;;2.43;;
53961;SDS011;39868;53.398;6.564;2023-04-25T00:07:21;11.27;;;2.50;;
53961;SDS011;39868;53.398;6.564;2023-04-25T00:09:48;8.68;;;1.98;;
53961;SDS011;39868;53.398;6.564;2023-04-25T00:12:15;7.37;;;2.60;;
53961;SDS011;39868;53.398;6.564;2023-04-25T00:14:43;8.77;;;2.17;;
53961;SDS011;39868;53.398;6.564;2023-04-25T00:17:12;8.03;;;2.27;;
53961;SDS011;39868;53.398;6.564;2023-04-25T00:19:39;10.50;;;2.10;;
53961;SDS011;39868;53.398;6.564;2023-04-25T00:22:06;6.40;;;2.47;;
53961;SDS011;39868;53.398;6.564;2023-04-25T00:24:34;3.87;;;2.07;;
53961;SDS011;39868;53.398;6.564;2023-04-25T00:27:01;8.27;;;2.30;;
53961;SDS011;39868;53.398;6.564;2023-04-25T00:29:28;4.83;;;1.83;;
53961;SDS011;39868;53.398;6.564;2023-04-25T00:31:56;5.07;;;1.50;;
53961;SDS011;39868;53.398;6.564;2023-04-25T00:34:23;5.73;;;1.63;;
53961;SDS011;39868;53.398;6.564;2023-04-25T00:36:51;5.30;;;1.97;;
53961;SDS011;39868;53.398;6.564;2023-04-25T00:39:19;4.57;;;1.67;;
53961;SDS011;39868;53.398;6.564;2023-04-25T00:41:46;7.63;;;2.00;;
53961;SDS011;39868;53.398;6.564;2023-04-25T00:44:14;8.90;;;1.97;;
53961;SDS011;39868;53.398;6.564;2023-04-25T00:46:43;7.47;;;2.30;;
53961;SDS011;39868;53.398;6.564;2023-04-25T00:49:15;8.90;;;2.20;;
53961;SDS011;39868;53.398;6.564;2023-04-25T00:51:43;6.00;;;2.13;;
53961;SDS011;39868;53.398;6.564;2023-04-25T00:54:11;8.93;;;2.27;;
53961;SDS011;39868;53.398;6.564;2023-04-25T00:56:40;6.40;;;2.23;;
53961;SDS011;39868;53.398;6.564;2023-04-25T00:59:09;7.17;;;2.10;;
53961;SDS011;39868;53.398;6.564;2023-04-25T01:01:38;5.40;;;1.97;;
53961;SDS011;39868;53.398;6.564;2023-04-25T01:04:05;4.00;;;1.67;;
53961;SDS011;39868;53.398;6.564;2023-04-25T01:06:34;6.43;;;1.87;;
53961;SDS011;39868;53.398;6.564;2023-04-25T01:09:02;2.70;;;1.73;;
53961;SDS011;39868;53.398;6.564;2023-04-25T01:11:31;4.83;;;1.77;;
53961;SDS011;39868;53.398;6.564;2023-04-25T01:13:58;5.30;;;1.60;;
53961;SDS011;39868;53.398;6.564;2023-04-25T01:16:27;2.67;;;1.87;;
53961;SDS011;39868;53.398;6.564;2023-04-25T01:18:55;6.57;;;2.03;;
53961;SDS011;39868;53.398;6.564;2023-04-25T01:21:22;3.30;;;1.73;;
53961;SDS011;39868;53.398;6.564;2023-04-25T01:23:52;4.83;;;1.73;;
53961;SDS011;39868;53.398;6.564;2023-04-25T01:26:21;8.20;;;1.77;;
53961;SDS011;39868;53.398;6.564;2023-04-25T01:28:49;5.77;;;2.00;;
53961;SDS011;39868;53.398;6.564;2023-04-25T01:31:17;5.83;;;2.13;;
53961;SDS011;39868;53.398;6.564;2023-04-25T01:33:45;8.27;;;1.93;;
53961;SDS011;39868;53.398;6.564;2023-04-25T01:36:12;6.13;;;1.77;;
53961;SDS011;39868;53.398;6.564;2023-04-25T01:38:41;5.03;;;1.77;;
53961;SDS011;39868;53.398;6.564;2023-04-25T01:41:10;7.53;;;1.70;;
53961;SDS011;39868;53.398;6.564;2023-04-25T01:43:37;3.93;;;1.83;;
53961;SDS011;39868;53.398;6.564;2023-04-25T01:46:05;4.40;;;1.70;;
53961;SDS011;39868;53.398;6.564;2023-04-25T01:48:33;5.57;;;1.90;;
53961;SDS011;39868;53.398;6.564;2023-04-25T01:51:03;3.33;;;1.90;;
53961;SDS011;39868;53.398;6.564;2023-04-25T01:53:31;6.90;;;1.83;;
53961;SDS011;39868;53.398;6.564;2023-04-25T01:55:59;3.97;;;1.90;;
53961;SDS011;39868;53.398;6.564;2023-04-25T01:58:32;7.47;;;2.20;;
53961;SDS011;39868;53.398;6.564;2023-04-25T02:01:18;4.47;;;1.60;;
53961;SDS011;39868;53.398;6.564;2023-04-25T02:04:00;9.93;;;1.80;;
53961;SDS011;39868;53.398;6.564;2023-04-25T02:06:33;11.53;;;2.20;;
53961;SDS011;39868;53.398;6.564;2023-04-25T02:09:00;5.33;;;2.07;;
53961;SDS011;39868;53.398;6.564;2023-04-25T02:11:28;3.83;;;2.13;;
53961;SDS011;39868;53.398;6.564;2023-04-25T02:14:14;4.20;;;1.80;;
53961;SDS011;39868;53.398;6.564;2023-04-25T02:16:51;5.00;;;1.63;;
53961;SDS011;39868;53.398;6.564;2023-04-25T02:19:19;3.27;;;1.97;;
53961;SDS011;39868;53.398;6.564;2023-04-25T02:21:46;5.10;;;1.90;;
53961;SDS011;39868;53.398;6.564;2023-04-25T02:24:14;7.63;;;1.90;;
53961;SDS011;39868;53.398;6.564;2023-04-25T02:26:41;3.47;;;1.50;;
53961;SDS011;39868;53.398;6.564;2023-04-25T02:29:09;3.50;;;1.43;;
53961;SDS011;39868;53.398;6.564;2023-04-25T02:31:36;9.27;;;1.90;;
53961;SDS011;39868;53.398;6.564;2023-04-25T02:34:04;6.27;;;1.67;;
53961;SDS011;39868;53.398;6.564;2023-04-25T02:36:34;7.90;;;1.90;;
53961;SDS011;39868;53.398;6.564;2023-04-25T02:39:02;4.27;;;1.70;;
53961;SDS011;39868;53.398;6.564;2023-04-25T02:41:29;7.33;;;1.90;;
53961;SDS011;39868;53.398;6.564;2023-04-25T02:43:56;5.17;;;1.70;;
53961;SDS011;39868;53.398;6.564;2023-04-25T02:46:24;9.53;;;1.70;;
53961;SDS011;39868;53.398;6.564;2023-04-25T02:49:05;4.27;;;1.70;;
53961;SDS011;39868;53.398;6.564;2023-04-25T02:51:34;3.90;;;1.53;;
53961;SDS011;39868;53.398;6.564;2023-04-25T02:54:01;2.63;;;1.57;;
53961;SDS011;39868;53.398;6.564;2023-04-25T02:56:30;2.07;;;1.60;;
53961;SDS011;39868;53.398;6.564;2023-04-25T02:58:58;4.77;;;1.80;;
53961;SDS011;39868;53.398;6.564;2023-04-25T03:01:27;6.43;;;1.77;;
53961;SDS011;39868;53.398;6.564;2023-04-25T03:03:54;4.77;;;1.90;;
53961;SDS011;39868;53.398;6.564;2023-04-25T03:06:23;3.63;;;1.37;;
53961;SDS011;39868;53.398;6.564;2023-04-25T03:08:51;3.50;;;1.43;;
53961;SDS011;39868;53.398;6.564;2023-04-25T03:11:18;5.07;;;1.90;;
53961;SDS011;39868;53.398;6.564;2023-04-25T03:13:47;4.20;;;1.60;;
53961;SDS011;39868;53.398;6.564;2023-04-25T03:16:14;6.70;;;1.90;;
53961;SDS011;39868;53.398;6.564;2023-04-25T03:18:42;5.83;;;1.47;;
53961;SDS011;39868;53.398;6.564;2023-04-25T03:21:10;8.57;;;2.03;;
53961;SDS011;39868;53.398;6.564;2023-04-25T03:23:37;7.10;;;1.90;;
53961;SDS011;39868;53.398;6.564;2023-04-25T03:26:06;5.37;;;1.67;;
53961;SDS011;39868;53.398;6.564;2023-04-25T03:28:34;3.10;;;1.43;;
53961;SDS011;39868;53.398;6.564;2023-04-25T03:31:01;3.40;;;1.57;;
53961;SDS011;39868;53.398;6.564;2023-04-25T03:33:29;3.47;;;1.67;;
53961;SDS011;39868;53.398;6.564;2023-04-25T03:35:56;3.70;;;1.30;;
53961;SDS011;39868;53.398;6.564;2023-04-25T03:38:24;2.27;;;1.50;;
53961;SDS011;39868;53.398;6.564;2023-04-25T03:40:51;3.30;;;1.27;;
53961;SDS011;39868;53.398;6.564;2023-04-25T03:43:24;4.28;;;1.38;;
53961;SDS011;39868;53.398;6.564;2023-04-25T03:45:59;1.40;;;1.20;;
53961;SDS011;39868;53.398;6.564;2023-04-25T03:48:27;4.97;;;1.40;;
53961;SDS011;39868;53.398;6.564;2023-04-25T03:50:54;4.13;;;1.10;;
53961;SDS011;39868;53.398;6.564;2023-04-25T03:53:22;1.23;;;1.10;;
53961;SDS011;39868;53.398;6.564;2023-04-25T03:56:08;2.77;;;1.47;;
53961;SDS011;39868;53.398;6.564;2023-04-25T03:58:38;2.27;;;1.30;;
53961;SDS011;39868;53.398;6.564;2023-04-25T04:01:06;4.60;;;1.60;;
53961;SDS011;39868;53.398;6.564;2023-04-25T04:03:37;5.57;;;1.53;;
53961;SDS011;39868;53.398;6.564;2023-04-25T04:06:05;4.13;;;1.80;;
53961;SDS011;39868;53.398;6.564;2023-04-25T04:08:40;5.87;;;1.70;;
53961;SDS011;39868;53.398;6.564;2023-04-25T04:11:09;4.07;;;1.43;;
53961;SDS011;39868;53.398;6.564;2023-04-25T04:13:37;6.17;;;1.50;;
53961;SDS011;39868;53.398;6.564;2023-04-25T04:16:05;2.67;;;1.43;;
53961;SDS011;39868;53.398;6.564;2023-04-25T04:18:34;4.50;;;1.20;;
53961;SDS011;39868;53.398;6.564;2023-04-25T04:21:01;3.30;;;1.53;;
53961;SDS011;39868;53.398;6.564;2023-04-25T04:23:31;3.27;;;1.47;;
53961;SDS011;39868;53.398;6.564;2023-04-25T04:25:59;3.67;;;1.57;;
53961;SDS011;39868;53.398;6.564;2023-04-25T04:28:27;8.03;;;1.60;;
53961;SDS011;39868;53.398;6.564;2023-04-25T04:31:07;7.17;;;1.70;;
53961;SDS011;39868;53.398;6.564;2023-04-25T04:33:36;4.73;;;1.43;;
53961;SDS011;39868;53.398;6.564;2023-04-25T04:36:04;3.50;;;1.53;;
53961;SDS011;39868;53.398;6.564;2023-04-25T04:38:34;1.90;;;1.30;;
53961;SDS011;39868;53.398;6.564;2023-04-25T04:41:04;3.13;;;1.47;;
53961;SDS011;39868;53.398;6.564;2023-04-25T04:43:47;5.43;;;1.33;;
53961;SDS011;39868;53.398;6.564;2023-04-25T04:46:33;5.83;;;1.77;;
53961;SDS011;39868;53.398;6.564;2023-04-25T04:49:23;7.93;;;1.87;;
53961;SDS011;39868;53.398;6.564;2023-04-25T04:52:09;2.97;;;1.10;;
53961;SDS011;39868;53.398;6.564;2023-04-25T04:54:51;2.33;;;1.30;;
53961;SDS011;39868;53.398;6.564;2023-04-25T04:57:34;4.80;;;1.58;;
53961;SDS011;39868;53.398;6.564;2023-04-25T05:00:14;1.53;;;1.00;;
53961;SDS011;39868;53.398;6.564;2023-04-25T05:03:00;3.87;;;1.43;;
53961;SDS011;39868;53.398;6.564;2023-04-25T05:06:00;4.93;;;1.30;;
53961;SDS011;39868;53.398;6.564;2023-04-25T05:08:30;3.10;;;1.70;;
53961;SDS011;39868;53.398;6.564;2023-04-25T05:11:18;3.67;;;1.50;;
53961;SDS011;39868;53.398;6.564;2023-04-25T05:14:12;1.63;;;1.17;;
53961;SDS011;39868;53.398;6.564;2023-04-25T05:17:15;5.25;;;1.70;;
53961;SDS011;39868;53.398;6.564;2023-04-25T05:20:06;2.97;;;1.50;;
53961;SDS011;39868;53.398;6.564;2023-04-25T05:22:58;2.80;;;1.30;;
53961;SDS011;39868;53.398;6.564;2023-04-25T05:25:52;4.07;;;1.63;;
53961;SDS011;39868;53.398;6.564;2023-04-25T05:28:34;9.03;;;1.93;;
53961;SDS011;39868;53.398;6.564;2023-04-25T05:31:07;5.83;;;1.80;;
53961;SDS011;39868;53.398;6.564;2023-04-25T05:33:48;2.03;;;1.57;;
53961;SDS011;39868;53.398;6.564;2023-04-25T05:36:18;3.70;;;1.80;;
53961;SDS011;39868;53.398;6.564;2023-04-25T05:38:46;2.33;;;1.60;;
53961;SDS011;39868;53.398;6.564;2023-04-25T05:41:13;1.73;;;1.30;;
53961;SDS011;39868;53.398;6.564;2023-04-25T05:44:12;2.47;;;1.20;;
53961;SDS011;39868;53.398;6.564;2023-04-25T05:46:48;1.67;;;1.33;;
53961;SDS011;39868;53.398;6.564;2023-04-25T05:49:42;1.97;;;1.27;;
53961;SDS011;39868;53.398;6.564;2023-04-25T05:52:26;3.10;;;1.67;;
53961;SDS011;39868;53.398;6.564;2023-04-25T05:55:01;4.27;;;1.10;;
53961;SDS011;39868;53.398;6.564;2023-04-25T05:57:30;2.53;;;1.40;;
53961;SDS011;39868;53.398;6.564;2023-04-25T05:59:59;3.50;;;1.20;;
53961;SDS011;39868;53.398;6.564;2023-04-25T06:02:38;1.90;;;1.53;;
53961;SDS011;39868;53.398;6.564;2023-04-25T06:05:08;5.13;;;1.87;;
53961;SDS011;39868;53.398;6.564;2023-04-25T06:07:35;3.77;;;1.33;;
53961;SDS011;39868;53.398;6.564;2023-04-25T06:10:03;3.43;;;1.23;;
53961;SDS011;39868;53.398;6.564;2023-04-25T06:12:33;1.40;;;1.23;;
53961;SDS011;39868;53.398;6.564;2023-04-25T06:15:02;7.27;;;1.57;;
53961;SDS011;39868;53.398;6.564;2023-04-25T06:17:38;8.37;;;1.33;;
53961;SDS011;39868;53.398;6.564;2023-04-25T06:20:06;2.60;;;1.03;;
53961;SDS011;39868;53.398;6.564;2023-04-25T06:22:34;3.07;;;1.50;;
53961;SDS011;39868;53.398;6.564;2023-04-25T06:25:02;2.97;;;1.00;;
53961;SDS011;39868;53.398;6.564;2023-04-25T06:27:32;3.25;;;1.40;;
53961;SDS011;39868;53.398;6.564;2023-04-25T06:30:01;7.97;;;1.70;;
53961;SDS011;39868;53.398;6.564;2023-04-25T06:32:31;4.88;;;1.38;;
53961;SDS011;39868;53.398;6.564;2023-04-25T06:34:59;3.85;;;1.20;;
53961;SDS011;39868;53.398;6.564;2023-04-25T06:37:27;4.97;;;1.10;;
53961;SDS011;39868;53.398;6.564;2023-04-25T06:39:55;3.40;;;1.17;;
53961;SDS011;39868;53.398;6.564;2023-04-25T06:42:22;1.40;;;0.80;;
53961;SDS011;39868;53.398;6.564;2023-04-25T06:44:57;1.10;;;0.80;;
53961;SDS011;39868;53.398;6.564;2023-04-25T06:47:25;1.33;;;0.97;;
53961;SDS011;39868;53.398;6.564;2023-04-25T06:49:55;1.47;;;0.80;;
53961;SDS011;39868;53.398;6.564;2023-04-25T06:52:23;0.40;;;0.40;;
53961;SDS011;39868;53.398;6.564;2023-04-25T06:54:52;2.93;;;0.67;;
53961;SDS011;39868;53.398;6.564;2023-04-25T06:57:37;2.07;;;1.13;;
53961;SDS011;39868;53.398;6.564;2023-04-25T07:00:24;2.33;;;1.00;;
53961;SDS011;39868;53.398;6.564;2023-04-25T07:02:52;5.30;;;1.67;;
53961;SDS011;39868;53.398;6.564;2023-04-25T07:05:19;3.87;;;1.40;;
53961;SDS011;39868;53.398;6.564;2023-04-25T07:07:48;5.20;;;1.50;;
53961;SDS011;39868;53.398;6.564;2023-04-25T07:10:15;2.80;;;1.40;;
53961;SDS011;39868;53.398;6.564;2023-04-25T07:12:42;4.37;;;1.50;;
53961;SDS011;39868;53.398;6.564;2023-04-25T07:15:09;4.43;;;1.67;;
53961;SDS011;39868;53.398;6.564;2023-04-25T07:17:41;2.90;;;1.23;;
53961;SDS011;39868;53.398;6.564;2023-04-25T07:20:09;3.87;;;1.40;;
53961;SDS011;39868;53.398;6.564;2023-04-25T07:22:37;3.35;;;1.52;;
53961;SDS011;39868;53.398;6.564;2023-04-25T07:25:04;5.22;;;1.73;;
53961;SDS011;39868;53.398;6.564;2023-04-25T07:27:32;3.58;;;1.40;;
53961;SDS011;39868;53.398;6.564;2023-04-25T07:30:06;1.58;;;1.13;;
53961;SDS011;39868;53.398;6.564;2023-04-25T07:32:34;1.85;;;1.10;;
53961;SDS011;39868;53.398;6.564;2023-04-25T07:35:01;1.25;;;0.93;;
53961;SDS011;39868;53.398;6.564;2023-04-25T07:37:30;3.85;;;1.13;;
53961;SDS011;39868;53.398;6.564;2023-04-25T07:40:07;2.45;;;1.23;;
53961;SDS011;39868;53.398;6.564;2023-04-25T07:42:41;5.90;;;1.35;;
53961;SDS011;39868;53.398;6.564;2023-04-25T07:45:09;4.30;;;1.48;;
53961;SDS011;39868;53.398;6.564;2023-04-25T07:47:38;6.25;;;1.35;;
53961;SDS011;39868;53.398;6.564;2023-04-25T07:50:07;2.97;;;1.40;;
53961;SDS011;39868;53.398;6.564;2023-04-25T07:52:35;2.92;;;1.30;;
53961;SDS011;39868;53.398;6.564;2023-04-25T07:55:21;5.50;;;1.80;;
53961;SDS011;39868;53.398;6.564;2023-04-25T07:57:58;3.65;;;1.45;;
53961;SDS011;39868;53.398;6.564;2023-04-25T08:00:28;2.28;;;1.30;;
53961;SDS011;39868;53.398;6.564;2023-04-25T08:03:15;4.05;;;1.60;;
53961;SDS011;39868;53.398;6.564;2023-04-25T08:05:44;2.85;;;1.30;;
53961;SDS011;39868;53.398;6.564;2023-04-25T08:08:13;4.72;;;1.30;;
53961;SDS011;39868;53.398;6.564;2023-04-25T08:10:41;4.57;;;1.38;;
53961;SDS011;39868;53.398;6.564;2023-04-25T08:13:10;2.05;;;1.27;;
53961;SDS011;39868;53.398;6.564;2023-04-25T08:15:38;4.03;;;1.10;;
53961;SDS011;39868;53.398;6.564;2023-04-25T08:18:06;1.63;;;1.20;;
53961;SDS011;39868;53.398;6.564;2023-04-25T08:20:34;1.50;;;1.25;;
53961;SDS011;39868;53.398;6.564;2023-04-25T08:23:04;1.90;;;1.33;;
53961;SDS011;39868;53.398;6.564;2023-04-25T08:25:43;2.42;;;0.93;;
53961;SDS011;39868;53.398;6.564;2023-04-25T08:28:12;3.95;;;1.23;;
53961;SDS011;39868;53.398;6.564;2023-04-25T08:30:43;7.38;;;1.80;;
53961;SDS011;39868;53.398;6.564;2023-04-25T08:33:12;3.08;;;1.70;;
53961;SDS011;39868;53.398;6.564;2023-04-25T08:35:55;6.82;;;1.52;;
53961;SDS011;39868;53.398;6.564;2023-04-25T08:38:26;1.65;;;1.25;;
53961;SDS011;39868;53.398;6.564;2023-04-25T08:40:54;4.78;;;1.67;;
53961;SDS011;39868;53.398;6.564;2023-04-25T08:43:23;3.13;;;1.48;;
53961;SDS011;39868;53.398;6.564;2023-04-25T08:45:53;1.80;;;1.17;;
53961;SDS011;39868;53.398;6.564;2023-04-25T08:48:33;4.63;;;1.45;;
53961;SDS011;39868;53.398;6.564;2023-04-25T08:51:03;3.90;;;1.40;;
53961;SDS011;39868;53.398;6.564;2023-04-25T08:53:42;2.47;;;1.48;;
53961;SDS011;39868;53.398;6.564;2023-04-25T08:56:19;2.70;;;1.45;;
53961;SDS011;39868;53.398;6.564;2023-04-25T08:58:48;6.78;;;1.50;;
53961;SDS011;39868;53.398;6.564;2023-04-25T09:01:19;4.45;;;1.67;;
53961;SDS011;39868;53.398;6.564;2023-04-25T09:03:51;3.28;;;1.52;;
53961;SDS011;39868;53.398;6.564;2023-04-25T09:06:19;1.45;;;0.95;;
53961;SDS011;39868;53.398;6.564;2023-04-25T09:08:49;2.25;;;1.00;;
53961;SDS011;39868;53.398;6.564;2023-04-25T09:11:17;3.15;;;0.90;;
53961;SDS011;39868;53.398;6.564;2023-04-25T09:13:50;4.40;;;1.20;;
53961;SDS011;39868;53.398;6.564;2023-04-25T09:17:12;5.00;;;1.30;;
53961;SDS011;39868;53.398;6.564;2023-04-25T09:19:42;2.22;;;1.40;;
53961;SDS011;39868;53.398;6.564;2023-04-25T09:22:19;2.20;;;1.10;;
53961;SDS011;39868;53.398;6.564;2023-04-25T09:24:49;1.75;;;1.10;;
53961;SDS011;39868;53.398;6.564;2023-04-25T09:27:21;1.90;;;1.17;;
53961;SDS011;39868;53.398;6.564;2023-04-25T09:30:16;2.97;;;1.42;;
53961;SDS011;39868;53.398;6.564;2023-04-25T09:33:07;4.97;;;1.42;;
53961;SDS011;39868;53.398;6.564;2023-04-25T09:35:42;1.85;;;1.15;;
53961;SDS011;39868;53.398;6.564;2023-04-25T09:38:18;3.38;;;1.42;;
53961;SDS011;39868;53.398;6.564;2023-04-25T09:41:11;2.58;;;1.60;;
53961;SDS011;39868;53.398;6.564;2023-04-25T09:43:45;2.83;;;1.25;;
53961;SDS011;39868;53.398;6.564;2023-04-25T09:46:14;3.92;;;1.40;;
53961;SDS011;39868;53.398;6.564;2023-04-25T09:48:50;10.15;;;1.83;;
53961;SDS011;39868;53.398;6.564;2023-04-25T09:51:25;4.13;;;1.55;;
53961;SDS011;39868;53.398;6.564;2023-04-25T09:53:55;1.58;;;1.33;;
53961;SDS011;39868;53.398;6.564;2023-04-25T09:56:32;2.95;;;1.73;;
53961;SDS011;39868;53.398;6.564;2023-04-25T09:59:06;7.28;;;1.35;;
53961;SDS011;39868;53.398;6.564;2023-04-25T10:01:36;4.90;;;1.30;;
53961;SDS011;39868;53.398;6.564;2023-04-25T10:04:22;4.25;;;1.20;;
53961;SDS011;39868;53.398;6.564;2023-04-25T10:07:06;2.30;;;1.13;;
53961;SDS011;39868;53.398;6.564;2023-04-25T10:09:38;3.65;;;1.25;;
53961;SDS011;39868;53.398;6.564;2023-04-25T10:12:07;3.45;;;1.33;;
53961;SDS011;39868;53.398;6.564;2023-04-25T10:14:34;4.05;;;1.48;;
53961;SDS011;39868;53.398;6.564;2023-04-25T10:17:02;3.30;;;1.67;;
53961;SDS011;39868;53.398;6.564;2023-04-25T10:19:29;4.97;;;1.20;;
53961;SDS011;39868;53.398;6.564;2023-04-25T10:22:05;8.13;;;1.48;;
53961;SDS011;39868;53.398;6.564;2023-04-25T10:24:38;2.05;;;1.40;;
53961;SDS011;39868;53.398;6.564;2023-04-25T10:27:06;9.80;;;1.60;;
53961;SDS011;39868;53.398;6.564;2023-04-25T10:29:34;4.07;;;1.45;;
53961;SDS011;39868;53.398;6.564;2023-04-25T10:32:02;5.88;;;1.67;;
53961;SDS011;39868;53.398;6.564;2023-04-25T10:34:42;7.20;;;1.50;;
53961;SDS011;39868;53.398;6.564;2023-04-25T10:37:13;4.95;;;1.38;;
53961;SDS011;39868;53.398;6.564;2023-04-25T10:39:41;2.45;;;1.40;;
53961;SDS011;39868;53.398;6.564;2023-04-25T10:42:09;3.30;;;1.42;;
53961;SDS011;39868;53.398;6.564;2023-04-25T10:44:37;3.45;;;1.35;;
53961;SDS011;39868;53.398;6.564;2023-04-25T10:47:06;3.60;;;1.40;;
53961;SDS011;39868;53.398;6.564;2023-04-25T10:49:37;4.93;;;1.45;;
53961;SDS011;39868;53.398;6.564;2023-04-25T10:54:53;2.53;;;1.30;;
53961;SDS011;39868;53.398;6.564;2023-04-25T11:05:20;1.45;;;1.35;;
53961;SDS011;39868;53.398;6.564;2023-04-25T11:07:53;2.35;;;1.45;;
53961;SDS011;39868;53.398;6.564;2023-04-25T11:10:33;5.45;;;1.75;;
53961;SDS011;39868;53.398;6.564;2023-04-25T11:13:03;2.40;;;1.58;;
53961;SDS011;39868;53.398;6.564;2023-04-25T11:15:31;3.17;;;1.70;;
53961;SDS011;39868;53.398;6.564;2023-04-25T11:17:59;5.47;;;1.60;;
53961;SDS011;39868;53.398;6.564;2023-04-25T11:20:27;5.03;;;1.90;;
53961;SDS011;39868;53.398;6.564;2023-04-25T11:22:57;3.58;;;1.60;;
53961;SDS011;39868;53.398;6.564;2023-04-25T11:25:26;3.70;;;1.70;;
53961;SDS011;39868;53.398;6.564;2023-04-25T11:27:57;6.78;;;1.80;;
53961;SDS011;39868;53.398;6.564;2023-04-25T11:30:26;7.53;;;1.30;;
53961;SDS011;39868;53.398;6.564;2023-04-25T11:32:55;4.78;;;1.52;;
53961;SDS011;39868;53.398;6.564;2023-04-25T11:35:23;5.68;;;1.95;;
53961;SDS011;39868;53.398;6.564;2023-04-25T11:37:52;2.10;;;1.25;;
53961;SDS011;39868;53.398;6.564;2023-04-25T11:40:19;2.65;;;1.55;;
53961;SDS011;39868;53.398;6.564;2023-04-25T11:42:47;3.38;;;1.63;;
53961;SDS011;39868;53.398;6.564;2023-04-25T11:45:14;5.03;;;1.50;;
53961;SDS011;39868;53.398;6.564;2023-04-25T11:47:42;5.85;;;1.40;;
53961;SDS011;39868;53.398;6.564;2023-04-25T11:50:09;5.03;;;1.48;;
53961;SDS011;39868;53.398;6.564;2023-04-25T11:52:41;4.68;;;1.52;;
53961;SDS011;39868;53.398;6.564;2023-04-25T11:55:13;4.40;;;1.35;;
53961;SDS011;39868;53.398;6.564;2023-04-25T11:57:41;2.45;;;1.17;;
53961;SDS011;39868;53.398;6.564;2023-04-25T12:00:11;2.47;;;1.10;;
53961;SDS011;39868;53.398;6.564;2023-04-25T12:02:44;2.45;;;1.60;;
53961;SDS011;39868;53.398;6.564;2023-04-25T12:05:13;5.35;;;1.20;;
53961;SDS011;39868;53.398;6.564;2023-04-25T12:07:57;2.83;;;1.17;;
53961;SDS011;39868;53.398;6.564;2023-04-25T12:10:36;2.40;;;1.33;;
53961;SDS011;39868;53.398;6.564;2023-04-25T12:13:22;3.25;;;1.48;;
53961;SDS011;39868;53.398;6.564;2023-04-25T12:15:54;4.72;;;1.70;;
53961;SDS011;39868;53.398;6.564;2023-04-25T12:18:23;5.18;;;1.58;;
53961;SDS011;39868;53.398;6.564;2023-04-25T12:20:54;3.20;;;1.40;;
53961;SDS011;39868;53.398;6.564;2023-04-25T12:23:26;4.68;;;1.55;;
53961;SDS011;39868;53.398;6.564;2023-04-25T12:25:54;1.70;;;1.17;;
53961;SDS011;39868;53.398;6.564;2023-04-25T12:28:23;7.95;;;1.23;;
53961;SDS011;39868;53.398;6.564;2023-04-25T12:31:12;1.88;;;1.02;;
53961;SDS011;39868;53.398;6.564;2023-04-25T12:33:41;3.90;;;1.40;;
53961;SDS011;39868;53.398;6.564;2023-04-25T12:36:10;2.55;;;1.33;;
53961;SDS011;39868;53.398;6.564;2023-04-25T12:38:40;3.08;;;1.27;;
53961;SDS011;39868;53.398;6.564;2023-04-25T12:41:08;6.18;;;1.83;;
53961;SDS011;39868;53.398;6.564;2023-04-25T12:43:36;3.38;;;1.52;;
53961;SDS011;39868;53.398;6.564;2023-04-25T12:46:03;3.28;;;1.35;;
53961;SDS011;39868;53.398;6.564;2023-04-25T12:48:31;3.90;;;1.33;;
53961;SDS011;39868;53.398;6.564;2023-04-25T12:50:58;2.70;;;1.17;;
53961;SDS011;39868;53.398;6.564;2023-04-25T12:53:25;3.67;;;1.00;;
53961;SDS011;39868;53.398;6.564;2023-04-25T12:55:53;2.85;;;1.17;;
53961;SDS011;39868;53.398;6.564;2023-04-25T12:58:21;2.17;;;1.35;;
53961;SDS011;39868;53.398;6.564;2023-04-25T13:00:50;2.25;;;1.10;;
53961;SDS011;39868;53.398;6.564;2023-04-25T13:03:17;8.80;;;1.10;;
53961;SDS011;39868;53.398;6.564;2023-04-25T13:05:45;3.20;;;1.08;;
53961;SDS011;39868;53.398;6.564;2023-04-25T13:08:13;3.53;;;0.95;;
53961;SDS011;39868;53.398;6.564;2023-04-25T13:10:41;3.17;;;1.00;;
53961;SDS011;39868;53.398;6.564;2023-04-25T13:13:08;2.42;;;1.17;;
53961;SDS011;39868;53.398;6.564;2023-04-25T13:15:35;6.65;;;1.92;;
53961;SDS011;39868;53.398;6.564;2023-04-25T13:18:03;6.88;;;1.55;;
53961;SDS011;39868;53.398;6.564;2023-04-25T13:20:32;11.88;;;1.40;;
53961;SDS011;39868;53.398;6.564;2023-04-25T13:22:59;4.85;;;1.40;;
53961;SDS011;39868;53.398;6.564;2023-04-25T13:25:28;5.20;;;1.50;;
53961;SDS011;39868;53.398;6.564;2023-04-25T13:27:55;3.40;;;1.38;;
53961;SDS011;39868;53.398;6.564;2023-04-25T13:30:23;4.70;;;1.60;;
53961;SDS011;39868;53.398;6.564;2023-04-25T13:32:50;4.80;;;1.00;;
53961;SDS011;39868;53.398;6.564;2023-04-25T13:35:17;4.10;;;1.48;;
53961;SDS011;39868;53.398;6.564;2023-04-25T13:37:45;4.57;;;1.40;;
53961;SDS011;39868;53.398;6.564;2023-04-25T13:40:12;1.90;;;1.27;;
53961;SDS011;39868;53.398;6.564;2023-04-25T13:42:39;4.13;;;1.33;;
53961;SDS011;39868;53.398;6.564;2023-04-25T13:45:07;2.95;;;1.52;;
53961;SDS011;39868;53.398;6.564;2023-04-25T13:47:35;4.45;;;1.23;;
53961;SDS011;39868;53.398;6.564;2023-04-25T13:50:03;3.03;;;1.23;;
53961;SDS011;39868;53.398;6.564;2023-04-25T13:52:32;3.08;;;1.02;;
53961;SDS011;39868;53.398;6.564;2023-04-25T13:54:59;4.07;;;1.30;;
53961;SDS011;39868;53.398;6.564;2023-04-25T13:57:32;2.40;;;0.90;;
53961;SDS011;39868;53.398;6.564;2023-04-25T14:00:00;2.50;;;1.20;;
53961;SDS011;39868;53.398;6.564;2023-04-25T14:02:47;3.83;;;1.20;;
53961;SDS011;39868;53.398;6.564;2023-04-25T14:05:16;2.22;;;1.42;;
53961;SDS011;39868;53.398;6.564;2023-04-25T14:07:43;4.30;;;1.20;;
53961;SDS011;39868;53.398;6.564;2023-04-25T14:10:11;2.35;;;1.17;;
53961;SDS011;39868;53.398;6.564;2023-04-25T14:12:38;2.55;;;1.60;;
53961;SDS011;39868;53.398;6.564;2023-04-25T14:15:05;2.55;;;1.02;;
53961;SDS011;39868;53.398;6.564;2023-04-25T14:17:33;0.73;;;0.70;;
53961;SDS011;39868;53.398;6.564;2023-04-25T14:20:00;2.30;;;1.35;;
53961;SDS011;39868;53.398;6.564;2023-04-25T14:22:28;6.15;;;1.30;;
53961;SDS011;39868;53.398;6.564;2023-04-25T14:24:56;3.45;;;0.90;;
53961;SDS011;39868;53.398;6.564;2023-04-25T14:27:23;2.20;;;1.10;;
53961;SDS011;39868;53.398;6.564;2023-04-25T14:29:53;5.53;;;1.00;;
53961;SDS011;39868;53.398;6.564;2023-04-25T14:32:20;5.55;;;1.55;;
53961;SDS011;39868;53.398;6.564;2023-04-25T14:34:47;7.20;;;1.25;;
53961;SDS011;39868;53.398;6.564;2023-04-25T14:37:15;1.48;;;0.95;;
53961;SDS011;39868;53.398;6.564;2023-04-25T14:39:43;3.55;;;1.70;;
53961;SDS011;39868;53.398;6.564;2023-04-25T14:42:11;2.95;;;1.13;;
53961;SDS011;39868;53.398;6.564;2023-04-25T14:44:39;2.88;;;1.15;;
53961;SDS011;39868;53.398;6.564;2023-04-25T14:47:06;2.95;;;1.20;;
53961;SDS011;39868;53.398;6.564;2023-04-25T14:49:34;3.03;;;1.15;;
53961;SDS011;39868;53.398;6.564;2023-04-25T14:52:01;3.17;;;1.40;;
53961;SDS011;39868;53.398;6.564;2023-04-25T14:54:29;3.10;;;1.17;;
53961;SDS011;39868;53.398;6.564;2023-04-25T14:56:56;2.70;;;1.05;;
53961;SDS011;39868;53.398;6.564;2023-04-25T14:59:24;5.20;;;1.55;;
53961;SDS011;39868;53.398;6.564;2023-04-25T15:01:52;4.57;;;1.02;;
53961;SDS011;39868;53.398;6.564;2023-04-25T15:04:19;1.90;;;0.82;;
53961;SDS011;39868;53.398;6.564;2023-04-25T15:06:47;6.30;;;0.93;;
53961;SDS011;39868;53.398;6.564;2023-04-25T15:09:14;3.80;;;0.82;;
53961;SDS011;39868;53.398;6.564;2023-04-25T15:11:42;3.63;;;0.77;;
53961;SDS011;39868;53.398;6.564;2023-04-25T15:14:10;4.38;;;1.15;;
53961;SDS011;39868;53.398;6.564;2023-04-25T15:16:37;2.83;;;1.08;;
53961;SDS011;39868;53.398;6.564;2023-04-25T15:19:04;4.22;;;1.05;;
53961;SDS011;39868;53.398;6.564;2023-04-25T15:21:32;3.42;;;0.73;;
53961;SDS011;39868;53.398;6.564;2023-04-25T15:23:59;2.75;;;1.10;;